Time;durP1;ratioP1;P1;durP2;ratioP2;P2;SDS_P1;SDS_P2;PMS_P1;PMS_P2;Temp;Humidity;BMP_temperature;BMP_pressure;BME280_temperature;BME280_humidity;BME280_pressure;Samples;Min_cycle;Max_cycle;Signal;HPM_P1;HPM_P2
2022/03/20 00:02:03;;;;;;;0.00;0.00;;;5.60;99.90;;;;;;5036642;28;20048;-83
2022/03/20 00:04:29;;;;;;;0.65;0.10;;;5.60;99.90;;;;;;5053423;28;20132;-84
2022/03/20 00:06:55;;;;;;;1.33;1.23;;;5.50;99.90;;;;;;5036668;28;20148;-83
2022/03/20 00:09:21;;;;;;;0.08;0.08;;;5.50;99.90;;;;;;5036809;28;20051;-83
2022/03/20 00:11:47;;;;;;;0.00;0.00;;;5.50;99.90;;;;;;5036427;28;20057;-84
2022/03/20 00:14:12;;;;;;;0.00;0.00;;;5.50;99.90;;;;;;5053245;28;20045;-84
2022/03/20 00:16:39;;;;;;;0.10;0.03;;;5.40;99.90;;;;;;5052948;28;20116;-84
2022/03/20 00:19:05;;;;;;;0.00;0.00;;;5.50;99.90;;;;;;5053037;28;20053;-84
2022/03/20 00:21:31;;;;;;;0.52;0.15;;;5.40;99.90;;;;;;5036423;28;20053;-84
2022/03/20 00:23:57;;;;;;;1.10;0.30;;;5.40;99.90;;;;;;5053149;28;20132;-84
2022/03/20 00:26:23;;;;;;;0.35;0.00;;;5.40;99.90;;;;;;5052960;28;20445;-85
2022/03/20 00:28:49;;;;;;;0.00;0.00;;;5.40;99.90;;;;;;5036737;28;20059;-84
2022/03/20 00:31:15;;;;;;;0.00;0.00;;;5.40;99.90;;;;;;5052910;28;20067;-84
2022/03/20 00:33:40;;;;;;;0.60;0.60;;;5.30;99.90;;;;;;5052861;28;20044;-84
2022/03/20 00:36:06;;;;;;;0.00;0.00;;;5.30;99.90;;;;;;5036864;28;20040;-84
2022/03/20 00:38:32;;;;;;;0.00;0.00;;;5.40;99.90;;;;;;5036348;28;20061;-84
2022/03/20 00:40:58;;;;;;;0.10;0.10;;;5.30;99.90;;;;;;5052945;28;20477;-84
2022/03/20 00:43:26;;;;;;;2.58;0.17;;;5.30;99.90;;;;;;5052655;28;20437;-84
2022/03/20 00:45:52;;;;;;;0.00;0.00;;;5.30;99.90;;;;;;5035704;28;20063;-84
2022/03/20 00:48:18;;;;;;;0.30;0.30;;;5.20;99.90;;;;;;5052719;28;20124;-84
2022/03/20 00:50:44;;;;;;;0.55;0.55;;;5.20;99.90;;;;;;5052630;28;20147;-84
2022/03/20 00:53:12;;;;;;;0.00;0.00;;;5.20;99.90;;;;;;5052782;28;20453;-85
2022/03/20 00:55:39;;;;;;;0.20;0.20;;;5.20;99.90;;;;;;5035896;28;20059;-84
2022/03/20 00:58:07;;;;;;;0.03;0.03;;;5.10;99.90;;;;;;5052671;28;20049;-84
2022/03/20 01:00:33;;;;;;;0.00;0.00;;;5.10;99.90;;;;;;5035299;28;20122;-84
2022/03/20 01:02:59;;;;;;;0.00;0.00;;;5.10;99.90;;;;;;5052726;28;20064;-84
2022/03/20 01:05:25;;;;;;;15.07;0.52;;;5.10;99.90;;;;;;5052503;28;20053;-84
2022/03/20 01:07:50;;;;;;;0.52;0.10;;;5.10;99.90;;;;;;5052414;28;20048;-84
2022/03/20 01:10:16;;;;;;;0.00;0.00;;;5.10;99.90;;;;;;5052574;28;20552;-84
2022/03/20 01:12:42;;;;;;;0.10;0.00;;;5.10;99.90;;;;;;5051991;28;20072;-84
2022/03/20 01:15:10;;;;;;;0.00;0.00;;;5.00;99.90;;;;;;5051970;28;20045;-84
2022/03/20 01:17:36;;;;;;;0.05;0.05;;;5.00;99.90;;;;;;5036141;28;20057;-84
2022/03/20 01:20:02;;;;;;;0.15;0.15;;;5.00;99.90;;;;;;5035421;28;20040;-84
2022/03/20 01:22:28;;;;;;;0.00;0.00;;;5.00;99.90;;;;;;5052275;28;20033;-84
2022/03/20 01:24:54;;;;;;;1.13;0.38;;;5.00;99.90;;;;;;5052034;28;20401;-85
2022/03/20 01:27:22;;;;;;;0.00;0.00;;;5.10;99.90;;;;;;5035632;28;20055;-84
2022/03/20 01:29:48;;;;;;;1.58;0.17;;;5.00;99.90;;;;;;5052248;28;20044;-84
2022/03/20 01:32:14;;;;;;;0.05;0.05;;;5.00;99.90;;;;;;5036198;28;20048;-84
2022/03/20 01:34:40;;;;;;;0.52;0.22;;;5.00;99.90;;;;;;5052198;28;20052;-85
2022/03/20 01:37:06;;;;;;;1.67;0.60;;;5.00;99.90;;;;;;5051733;28;20057;-84
2022/03/20 01:39:32;;;;;;;0.00;0.00;;;5.00;99.90;;;;;;5052256;28;20526;-84
2022/03/20 01:41:57;;;;;;;0.50;0.25;;;5.00;99.90;;;;;;5052116;28;20045;-84
2022/03/20 01:44:33;;;;;;;1.85;0.10;;;5.00;99.90;;;;;;5035014;28;20127;-84
2022/03/20 01:46:59;;;;;;;0.55;0.20;;;4.90;99.90;;;;;;5035510;28;20144;-84
2022/03/20 01:49:25;;;;;;;0.55;0.00;;;4.90;99.90;;;;;;5035597;28;20045;-84
2022/03/20 01:54:35;;;;;;;0.00;0.00;;;4.80;99.90;;;;;;5052065;28;20053;-84
2022/03/20 01:57:01;;;;;;;0.32;0.15;;;4.80;99.90;;;;;;5052209;28;20154;-84
2022/03/20 01:59:27;;;;;;;0.13;0.13;;;4.80;99.90;;;;;;5035846;28;20489;-84
2022/03/20 02:01:52;;;;;;;0.20;0.20;;;4.70;99.90;;;;;;5051975;28;20045;-84
2022/03/20 02:04:18;;;;;;;0.30;0.30;;;4.70;99.90;;;;;;5051978;28;20389;-84
2022/03/20 02:06:44;;;;;;;0.05;0.05;;;4.70;99.90;;;;;;5035371;28;20377;-84
2022/03/20 02:09:11;;;;;;;0.10;0.10;;;4.70;99.90;;;;;;5035484;28;20061;-84
2022/03/20 02:11:40;;;;;;;0.30;0.30;;;4.60;99.90;;;;;;5051869;28;20056;-84
2022/03/20 02:14:05;;;;;;;0.00;0.00;;;4.60;99.90;;;;;;5038500;28;20072;-84
2022/03/20 02:16:31;;;;;;;1.27;0.65;;;4.60;99.90;;;;;;5038991;28;20599;-84
2022/03/20 02:18:58;;;;;;;1.30;1.20;;;4.50;99.90;;;;;;5055476;28;20393;-84
2022/03/20 02:22:01;;;;;;;0.80;0.43;;;4.40;99.90;;;;;;5055502;28;20599;-84
2022/03/20 02:24:28;;;;;;;0.00;0.00;;;4.40;99.90;;;;;;5035947;28;20144;-84
2022/03/20 02:27:03;;;;;;;0.10;0.10;;;4.40;99.90;;;;;;5038655;28;20056;-84
2022/03/20 02:29:29;;;;;;;0.15;0.10;;;4.30;99.90;;;;;;5055398;28;20378;-84
2022/03/20 02:31:54;;;;;;;1.05;0.28;;;4.30;99.90;;;;;;5055120;28;20114;-84
2022/03/20 02:34:20;;;;;;;0.57;0.38;;;4.30;99.90;;;;;;5055351;28;20100;-84
2022/03/20 02:36:46;;;;;;;0.05;0.05;;;4.20;99.90;;;;;;5055135;28;20040;-84
2022/03/20 02:39:11;;;;;;;0.08;0.08;;;4.20;99.90;;;;;;5055083;28;20045;-84
2022/03/20 02:41:38;;;;;;;2.22;0.77;;;4.20;99.90;;;;;;5038496;28;20049;-85
2022/03/20 02:44:04;;;;;;;0.30;0.22;;;4.20;99.90;;;;;;5054704;28;20543;-85
2022/03/20 02:46:37;;;;;;;0.52;0.28;;;4.10;99.90;;;;;;5037478;28;20061;-84
2022/03/20 02:49:06;;;;;;;0.32;0.10;;;4.10;99.90;;;;;;5038473;28;20071;-85
2022/03/20 02:51:32;;;;;;;0.35;0.22;;;4.10;99.90;;;;;;5038628;28;20048;-85
2022/03/20 02:53:58;;;;;;;0.10;0.10;;;4.10;99.90;;;;;;5054716;28;20100;-84
2022/03/20 02:56:28;;;;;;;1.77;1.67;;;4.00;99.90;;;;;;5054762;28;20041;-85
2022/03/20 02:58:53;;;;;;;0.35;0.35;;;4.00;99.90;;;;;;5054528;28;20061;-85
2022/03/20 03:01:19;;;;;;;0.00;0.00;;;3.90;99.90;;;;;;5054428;28;20049;-84
2022/03/20 03:03:45;;;;;;;0.63;0.52;;;3.90;99.90;;;;;;5037595;28;20040;-84
2022/03/20 03:06:15;;;;;;;0.13;0.13;;;3.90;99.90;;;;;;5037714;28;20099;-85
2022/03/20 03:11:25;;;;;;;0.13;0.13;;;3.90;99.90;;;;;;5054483;28;20102;-84
2022/03/20 03:13:50;;;;;;;0.17;0.03;;;3.80;99.90;;;;;;5037544;28;20447;-84
2022/03/20 03:16:19;;;;;;;0.10;0.00;;;3.80;99.90;;;;;;5053959;28;20072;-85
2022/03/20 03:18:47;;;;;;;0.50;0.50;;;3.80;99.90;;;;;;5054128;28;20044;-85
2022/03/20 03:21:14;;;;;;;0.20;0.20;;;3.70;99.90;;;;;;5054616;28;20049;-85
2022/03/20 03:23:41;;;;;;;1.35;0.13;;;3.70;99.90;;;;;;5053343;28;20041;-84
2022/03/20 03:26:07;;;;;;;0.38;0.38;;;3.70;99.90;;;;;;5053845;28;20095;-85
2022/03/20 03:28:36;;;;;;;0.35;0.35;;;3.70;99.90;;;;;;5054497;28;20064;-85
2022/03/20 03:31:05;;;;;;;3.50;0.30;;;3.70;99.90;;;;;;5037740;28;20053;-85
2022/03/20 03:33:31;;;;;;;0.00;0.00;;;3.70;99.90;;;;;;5054306;28;20069;-85
2022/03/20 03:35:57;;;;;;;0.20;0.00;;;3.60;99.90;;;;;;5037373;28;20464;-84
2022/03/20 03:38:30;;;;;;;0.00;0.00;;;3.60;99.90;;;;;;5037748;28;20083;-85
2022/03/20 03:40:56;;;;;;;1.40;0.70;;;3.60;99.90;;;;;;5038052;28;20092;-85
2022/03/20 03:43:22;;;;;;;0.50;0.43;;;3.60;99.90;;;;;;5053624;28;20041;-85
2022/03/20 03:45:48;;;;;;;0.10;0.10;;;3.60;99.90;;;;;;5036940;28;20110;-84
2022/03/20 03:48:16;;;;;;;0.05;0.05;;;3.60;99.90;;;;;;5037276;28;20551;-85
2022/03/20 03:50:44;;;;;;;0.75;0.60;;;3.60;99.90;;;;;;5037166;28;20057;-84
2022/03/20 03:53:11;;;;;;;0.00;0.00;;;3.50;99.90;;;;;;5053716;28;20072;-84
2022/03/20 03:55:38;;;;;;;0.30;0.30;;;3.60;99.90;;;;;;5053538;28;20118;-85
2022/03/20 03:58:04;;;;;;;0.00;0.00;;;3.60;99.90;;;;;;5037290;28;20067;-85
2022/03/20 04:00:32;;;;;;;0.05;0.03;;;3.60;99.90;;;;;;5053606;28;20369;-84
2022/03/20 04:03:01;;;;;;;3.75;0.45;;;3.60;99.90;;;;;;5036826;28;20497;-85
2022/03/20 04:05:28;;;;;;;3.33;0.57;;;3.60;99.90;;;;;;5036889;28;20389;-85
2022/03/20 04:07:54;;;;;;;0.15;0.10;;;3.60;99.90;;;;;;5053438;28;20049;-85
2022/03/20 04:10:19;;;;;;;0.03;0.03;;;3.60;99.90;;;;;;5036649;28;20059;-84
2022/03/20 04:12:45;;;;;;;0.93;0.73;;;3.60;99.90;;;;;;5053239;28;20045;-85
2022/03/20 04:15:17;;;;;;;2.83;0.70;;;3.50;99.90;;;;;;5036302;28;20039;-85
2022/03/20 04:17:43;;;;;;;2.28;1.92;;;3.50;99.90;;;;;;5053368;28;20049;-84
2022/03/20 04:20:10;;;;;;;1.08;0.40;;;3.50;99.90;;;;;;5053373;28;20072;-85
2022/03/20 04:22:37;;;;;;;1.98;0.30;;;3.50;99.90;;;;;;5052952;28;20102;-84
2022/03/20 04:25:04;;;;;;;0.52;0.17;;;3.50;99.90;;;;;;5053102;28;20044;-85
2022/03/20 04:27:31;;;;;;;0.75;0.52;;;3.50;99.90;;;;;;5052752;28;20094;-85
2022/03/20 04:29:56;;;;;;;0.35;0.35;;;3.50;99.90;;;;;;5036124;28;20077;-85
2022/03/20 04:32:22;;;;;;;0.30;0.10;;;3.50;99.90;;;;;;5052962;28;20081;-85
2022/03/20 04:34:48;;;;;;;1.98;0.90;;;3.50;99.90;;;;;;5052867;28;20370;-84
2022/03/20 04:37:16;;;;;;;0.30;0.30;;;3.50;99.90;;;;;;5052102;28;20136;-85
2022/03/20 04:39:43;;;;;;;0.70;0.52;;;3.40;99.90;;;;;;5052627;28;20091;-85
2022/03/20 04:42:09;;;;;;;0.22;0.15;;;3.40;99.90;;;;;;5052757;28;20400;-85
2022/03/20 04:44:39;;;;;;;0.30;0.30;;;3.40;99.90;;;;;;5052274;28;20524;-84
2022/03/20 04:58:28;;;;;;;1.88;0.95;;;3.50;99.90;;;;;;5053039;28;20132;-84
2022/03/20 05:00:50;;;;;;;0.57;0.57;;;3.40;99.90;;;;;;5053140;28;20052;-85
2022/03/20 05:03:15;;;;;;;1.23;1.13;;;3.50;99.90;;;;;;5036007;28;20147;-84
2022/03/20 05:05:41;;;;;;;0.13;0.13;;;3.30;99.90;;;;;;5035915;28;20057;-85
2022/03/20 05:08:06;;;;;;;0.30;0.30;;;3.40;99.90;;;;;;5035559;28;20393;-84
2022/03/20 05:13:19;;;;;;;0.98;0.52;;;3.20;99.90;;;;;;5052602;28;20115;-85
2022/03/20 05:15:45;;;;;;;2.50;0.85;;;3.30;99.90;;;;;;5052561;28;20044;-85
2022/03/20 05:18:11;;;;;;;0.50;0.50;;;3.30;99.90;;;;;;5052429;28;20095;-85
2022/03/20 05:20:36;;;;;;;4.32;1.15;;;3.30;99.90;;;;;;5035965;28;20152;-84
2022/03/20 05:23:02;;;;;;;0.25;0.25;;;3.20;99.90;;;;;;5052170;28;20492;-85
2022/03/20 05:25:28;;;;;;;0.50;0.43;;;3.20;99.90;;;;;;5052309;28;20053;-85
2022/03/20 05:27:55;;;;;;;0.57;0.32;;;3.20;99.90;;;;;;5052427;28;20045;-85
2022/03/20 05:30:21;;;;;;;0.47;0.47;;;3.20;99.90;;;;;;5052406;28;20495;-85
2022/03/20 05:32:48;;;;;;;0.95;0.52;;;3.20;99.90;;;;;;5035643;28;20075;-85
2022/03/20 05:35:15;;;;;;;0.68;0.68;;;3.20;99.90;;;;;;5052075;28;20135;-84
2022/03/20 05:37:42;;;;;;;0.20;0.10;;;3.10;99.90;;;;;;5052274;28;20060;-84
2022/03/20 05:40:08;;;;;;;0.52;0.52;;;3.10;99.90;;;;;;5052193;28;20048;-85
2022/03/20 05:42:36;;;;;;;1.25;0.40;;;3.10;99.90;;;;;;5035861;28;20393;-84
2022/03/20 05:45:02;;;;;;;0.10;0.10;;;3.10;99.90;;;;;;5036195;28;20140;-84
2022/03/20 05:47:32;;;;;;;0.20;0.20;;;3.10;99.90;;;;;;5053489;28;20052;-85
2022/03/20 05:50:02;;;;;;;0.63;0.10;;;3.10;99.90;;;;;;5056012;28;20040;-84
2022/03/20 05:52:31;;;;;;;2.63;1.48;;;3.10;99.90;;;;;;5055724;28;20622;-85
2022/03/20 05:54:57;;;;;;;0.95;0.35;;;3.10;99.90;;;;;;5055988;28;20049;-84
2022/03/20 06:00:16;;;;;;;4.55;1.92;;;3.10;99.90;;;;;;5055916;28;20150;-85
2022/03/20 06:02:45;;;;;;;0.10;0.10;;;3.10;99.90;;;;;;5055999;28;20056;-84
2022/03/20 06:05:12;;;;;;;0.52;0.52;;;3.10;99.90;;;;;;5055775;28;20037;-86
2022/03/20 06:07:43;;;;;;;4.53;0.30;;;3.20;99.90;;;;;;5055573;28;20083;-85
2022/03/20 06:10:13;;;;;;;2.85;0.47;;;3.20;99.90;;;;;;5039078;28;20455;-85
2022/03/20 06:12:39;;;;;;;2.08;1.10;;;3.10;99.90;;;;;;5038868;28;20102;-85
2022/03/20 06:15:09;;;;;;;0.88;0.88;;;3.10;99.90;;;;;;5055308;28;20088;-85
2022/03/20 06:17:39;;;;;;;0.47;0.47;;;3.20;99.90;;;;;;5055670;28;20410;-85
2022/03/20 06:20:09;;;;;;;0.52;0.40;;;3.20;99.90;;;;;;5055506;28;20037;-85
2022/03/20 06:22:35;;;;;;;0.65;0.65;;;3.30;99.90;;;;;;5038523;28;20507;-85
2022/03/20 06:25:04;;;;;;;0.40;0.30;;;3.30;99.90;;;;;;5038641;28;20067;-85
2022/03/20 06:27:43;;;;;;;1.98;1.15;;;3.20;99.90;;;;;;5055829;28;20045;-85
2022/03/20 06:30:10;;;;;;;1.42;0.55;;;3.30;99.90;;;;;;5055802;28;20131;-85
2022/03/20 06:32:37;;;;;;;0.40;0.38;;;3.30;99.90;;;;;;5054857;28;20040;-85
2022/03/20 06:35:05;;;;;;;0.85;0.45;;;3.50;99.90;;;;;;5055582;28;20049;-86
2022/03/20 06:37:35;;;;;;;2.83;1.15;;;3.50;99.90;;;;;;5055185;28;20127;-85
2022/03/20 06:40:02;;;;;;;0.40;0.40;;;3.60;99.90;;;;;;5038326;28;20045;-84
2022/03/20 06:42:28;;;;;;;3.33;1.30;;;3.60;99.90;;;;;;5055093;28;20045;-86
2022/03/20 06:44:57;;;;;;;0.32;0.32;;;3.70;99.90;;;;;;5038325;28;20064;-85
2022/03/20 06:47:26;;;;;;;0.57;0.57;;;3.80;99.90;;;;;;5055317;28;20049;-85
2022/03/20 06:49:53;;;;;;;0.47;0.47;;;3.80;99.90;;;;;;5038265;28;20044;-88
2022/03/20 06:52:22;;;;;;;1.45;0.90;;;3.90;99.90;;;;;;5054872;28;20087;-85
2022/03/20 06:54:51;;;;;;;0.80;0.20;;;4.00;99.90;;;;;;5038251;28;20056;-85
2022/03/20 06:57:18;;;;;;;0.17;0.17;;;4.10;99.90;;;;;;5038238;28;20064;-85
2022/03/20 06:59:45;;;;;;;1.30;1.17;;;4.20;99.90;;;;;;5053749;28;20060;-84
2022/03/20 07:02:11;;;;;;;0.20;0.20;;;4.40;99.80;;;;;;5055019;28;20048;-85
2022/03/20 07:04:37;;;;;;;0.32;0.28;;;4.60;99.80;;;;;;5038279;28;20113;-85
2022/03/20 07:07:03;;;;;;;5.28;2.10;;;4.80;98.10;;;;;;5038280;28;20052;-85
2022/03/20 07:09:29;;;;;;;1.10;0.15;;;5.00;97.50;;;;;;5055322;28;20041;-85
2022/03/20 07:11:54;;;;;;;9.73;0.75;;;5.30;97.10;;;;;;5053720;28;20120;-84
2022/03/20 07:14:20;;;;;;;2.72;2.20;;;5.70;96.00;;;;;;5037340;28;20041;-87
2022/03/20 07:16:46;;;;;;;0.75;0.35;;;5.80;94.40;;;;;;5036439;28;20131;-84
2022/03/20 07:19:11;;;;;;;3.72;0.75;;;6.00;94.10;;;;;;5053671;28;20045;-85
2022/03/20 07:21:37;;;;;;;0.30;0.30;;;5.90;93.90;;;;;;5054324;28;20041;-85
2022/03/20 07:24:03;;;;;;;0.22;0.22;;;5.80;93.70;;;;;;5054264;28;20041;-85
2022/03/20 07:29:31;;;;;;;2.47;0.28;;;5.20;93.40;;;;;;5054284;28;20481;-84
2022/03/20 07:32:04;;;;;;;0.93;0.50;;;5.20;93.80;;;;;;5054122;28;20051;-85
2022/03/20 07:34:30;;;;;;;0.57;0.57;;;5.00;94.10;;;;;;5038232;28;20052;-85
2022/03/20 07:36:56;;;;;;;3.22;0.77;;;5.00;94.20;;;;;;5054020;28;20045;-85
2022/03/20 07:39:22;;;;;;;4.22;1.17;;;5.00;94.30;;;;;;5054173;28;20391;-85
2022/03/20 07:41:48;;;;;;;0.55;0.40;;;4.90;93.90;;;;;;5054099;28;20049;-84
2022/03/20 07:44:13;;;;;;;0.30;0.22;;;4.90;93.80;;;;;;5037224;28;20500;-85
2022/03/20 07:46:40;;;;;;;1.55;0.57;;;4.90;93.70;;;;;;5053448;28;20122;-85
2022/03/20 07:49:07;;;;;;;2.33;0.88;;;5.00;93.50;;;;;;5053838;28;20539;-85
2022/03/20 07:51:34;;;;;;;0.70;0.60;;;5.10;93.60;;;;;;5053805;28;20045;-84
2022/03/20 07:54:00;;;;;;;0.35;0.35;;;5.30;93.60;;;;;;5037144;28;20481;-85
2022/03/20 07:56:28;;;;;;;4.25;1.13;;;5.50;93.30;;;;;;5053335;28;20135;-85
2022/03/20 07:58:55;;;;;;;0.60;0.60;;;5.90;93.20;;;;;;5037032;28;20048;-84
2022/03/20 08:01:21;;;;;;;0.73;0.73;;;6.40;92.00;;;;;;5053505;28;20048;-84
2022/03/20 08:03:48;;;;;;;0.43;0.43;;;6.80;91.10;;;;;;5036844;28;20110;-84
2022/03/20 08:06:15;;;;;;;0.43;0.30;;;7.00;90.00;;;;;;5036795;28;20400;-84
2022/03/20 08:08:42;;;;;;;1.08;0.20;;;7.10;89.90;;;;;;5036570;28;20143;-83
2022/03/20 08:11:08;;;;;;;2.47;1.40;;;6.80;87.00;;;;;;5053262;28;20088;-84
2022/03/20 08:13:34;;;;;;;1.63;1.10;;;6.80;86.40;;;;;;5053217;28;20132;-84
2022/03/20 08:16:00;;;;;;;7.95;1.05;;;6.80;87.30;;;;;;5053501;28;20475;-83
2022/03/20 08:18:27;;;;;;;0.77;0.50;;;6.70;86.30;;;;;;5053068;28;20045;-84
2022/03/20 08:20:52;;;;;;;0.47;0.47;;;6.50;86.20;;;;;;5053350;28;20374;-84
2022/03/20 08:23:18;;;;;;;4.57;1.10;;;6.40;86.10;;;;;;5036493;28;20055;-83
2022/03/20 08:25:44;;;;;;;1.70;0.95;;;6.40;86.70;;;;;;5053368;28;20036;-83
2022/03/20 08:28:11;;;;;;;0.40;0.20;;;6.30;85.50;;;;;;5053036;28;20041;-83
2022/03/20 08:30:38;;;;;;;4.90;0.57;;;6.20;85.60;;;;;;5036253;28;20117;-84
2022/03/20 08:33:04;;;;;;;12.02;1.88;;;6.40;86.20;;;;;;5052974;28;20045;-83
2022/03/20 08:35:29;;;;;;;3.78;2.45;;;6.60;85.40;;;;;;5053045;28;20171;-83
2022/03/20 08:37:55;;;;;;;0.65;0.45;;;6.70;83.50;;;;;;5053313;28;20540;-83
2022/03/20 08:40:24;;;;;;;1.08;0.65;;;6.70;83.40;;;;;;5053051;28;20141;-84
2022/03/20 08:42:54;;;;;;;6.22;2.25;;;6.80;82.80;;;;;;5036133;28;20569;-83
2022/03/20 08:45:21;;;;;;;0.30;0.30;;;6.80;81.80;;;;;;5036253;28;20061;-84
2022/03/20 08:47:48;;;;;;;1.45;0.43;;;7.00;81.80;;;;;;5053330;28;20061;-83
2022/03/20 08:50:14;;;;;;;4.95;1.02;;;6.90;79.50;;;;;;5053165;28;20087;-83
2022/03/20 08:52:42;;;;;;;1.15;1.13;;;7.00;79.50;;;;;;5036007;28;20045;-84
2022/03/20 08:55:11;;;;;;;6.55;0.55;;;7.10;79.10;;;;;;5052506;28;20049;-83
2022/03/20 08:57:42;;;;;;;1.13;0.88;;;7.20;78.70;;;;;;5052658;28;20045;-83
2022/03/20 09:00:10;;;;;;;0.90;0.65;;;7.40;78.70;;;;;;5036644;28;20049;-83
2022/03/20 09:02:36;;;;;;;1.05;0.52;;;7.70;79.90;;;;;;5035971;28;20084;-83
2022/03/20 09:05:03;;;;;;;1.55;0.77;;;7.80;76.10;;;;;;5035558;28;20508;-83
2022/03/20 09:07:29;;;;;;;1.58;0.75;;;7.80;75.00;;;;;;5052689;28;20554;-83
2022/03/20 09:09:54;;;;;;;0.43;0.43;;;7.90;74.90;;;;;;5035828;28;20053;-83
2022/03/20 09:12:20;;;;;;;5.55;2.22;;;8.10;76.40;;;;;;5052494;28;20393;-83
2022/03/20 09:14:46;;;;;;;8.98;0.50;;;8.20;74.20;;;;;;5052514;28;20049;-83
2022/03/20 09:19:57;;;;;;;5.95;1.40;;;8.60;75.20;;;;;;5052299;28;20525;-83
2022/03/20 09:22:26;;;;;;;2.00;0.65;;;8.60;73.00;;;;;;5053622;28;20051;-83
2022/03/20 09:24:52;;;;;;;1.00;0.95;;;8.50;72.50;;;;;;5056827;28;20044;-83
2022/03/20 09:27:18;;;;;;;0.52;0.47;;;8.60;72.30;;;;;;5057299;28;20431;-84
2022/03/20 09:29:44;;;;;;;1.27;0.52;;;8.60;70.80;;;;;;5040235;28;20114;-84
2022/03/20 09:32:09;;;;;;;1.55;0.65;;;8.80;71.40;;;;;;5056818;28;20057;-84
2022/03/20 09:34:35;;;;;;;0.40;0.40;;;8.90;71.80;;;;;;5039588;28;20096;-84
2022/03/20 09:37:01;;;;;;;0.98;0.68;;;8.90;69.90;;;;;;5039545;28;20095;-83
2022/03/20 09:39:27;;;;;;;1.95;1.08;;;8.90;69.00;;;;;;5056370;28;20053;-83
2022/03/20 09:41:55;;;;;;;1.35;1.10;;;9.00;70.00;;;;;;5056900;28;20159;-83
2022/03/20 09:44:25;;;;;;;0.85;0.68;;;9.10;70.10;;;;;;5039266;28;20108;-83
2022/03/20 09:46:51;;;;;;;1.45;0.70;;;9.30;69.70;;;;;;5055867;28;20511;-83
2022/03/20 09:49:20;;;;;;;3.50;0.60;;;9.40;68.80;;;;;;5056343;28;20056;-83
2022/03/20 09:51:46;;;;;;;1.45;1.00;;;9.40;68.50;;;;;;5056087;28;20134;-83
2022/03/20 09:54:13;;;;;;;2.78;0.65;;;9.50;67.60;;;;;;5056343;28;20049;-83
2022/03/20 09:56:43;;;;;;;0.73;0.40;;;9.50;67.00;;;;;;5056216;28;20120;-83
2022/03/20 09:59:10;;;;;;;4.85;1.35;;;9.50;66.70;;;;;;5056150;28;20060;-83
2022/03/20 10:01:36;;;;;;;2.08;1.55;;;9.50;67.30;;;;;;5039423;28;20049;-83
2022/03/20 10:04:20;;;;;;;0.30;0.30;;;9.60;67.80;;;;;;5055634;28;20045;-83
2022/03/20 10:06:45;;;;;;;1.00;0.68;;;9.50;66.70;;;;;;5055916;28;20045;-83
2022/03/20 10:09:13;;;;;;;0.17;0.17;;;9.70;66.60;;;;;;5055751;28;20044;-83
2022/03/20 10:11:49;;;;;;;2.08;0.98;;;9.90;67.60;;;;;;5055627;28;20045;-83
2022/03/20 10:14:22;;;;;;;0.70;0.65;;;10.00;66.70;;;;;;5055834;28;20408;-83
2022/03/20 10:17:16;;;;;;;8.90;1.65;;;10.10;65.80;;;;;;5055621;28;20048;-83
2022/03/20 10:19:42;;;;;;;0.68;0.50;;;10.20;65.70;;;;;;5055621;28;20131;-83
2022/03/20 10:22:10;;;;;;;0.70;0.52;;;10.20;65.00;;;;;;5055618;28;20088;-83
2022/03/20 10:24:50;;;;;;;2.25;2.00;;;10.10;63.70;;;;;;5055518;28;20041;-83
2022/03/20 10:27:16;;;;;;;2.42;1.85;;;10.00;64.30;;;;;;5055492;28;20041;-83
2022/03/20 10:29:51;;;;;;;0.40;0.40;;;10.20;64.40;;;;;;5055696;28;20041;-83
2022/03/20 10:32:17;;;;;;;3.83;0.88;;;10.20;64.10;;;;;;5055449;28;20084;-83
2022/03/20 10:34:49;;;;;;;0.45;0.45;;;10.30;64.70;;;;;;5055313;28;20044;-83
2022/03/20 10:37:21;;;;;;;0.73;0.43;;;10.40;64.30;;;;;;5055261;28;20092;-83
2022/03/20 10:39:47;;;;;;;2.35;2.15;;;10.50;64.20;;;;;;5055587;28;20110;-83
2022/03/20 10:42:15;;;;;;;1.73;1.13;;;10.60;62.50;;;;;;5055075;28;20041;-83
2022/03/20 10:44:41;;;;;;;1.85;1.45;;;10.50;63.00;;;;;;5038144;28;20053;-83
2022/03/20 10:47:13;;;;;;;5.50;1.40;;;10.80;63.30;;;;;;5054787;28;20123;-83
2022/03/20 10:49:49;;;;;;;1.50;1.40;;;11.00;63.50;;;;;;5038516;28;20053;-83
2022/03/20 10:52:20;;;;;;;1.00;0.75;;;11.10;62.60;;;;;;5038940;28;20561;-83
2022/03/20 10:54:49;;;;;;;2.72;1.02;;;11.20;61.90;;;;;;5038672;28;20064;-83
2022/03/20 10:57:15;;;;;;;6.07;0.98;;;11.40;64.80;;;;;;5038426;28;20068;-83
2022/03/20 10:59:43;;;;;;;1.08;0.88;;;11.30;61.70;;;;;;5054921;28;20055;-83
2022/03/20 11:02:23;;;;;;;2.30;2.10;;;11.40;61.60;;;;;;5054866;28;20041;-83
2022/03/20 11:04:49;;;;;;;0.60;0.57;;;11.30;61.30;;;;;;5054610;28;20561;-83
2022/03/20 11:07:23;;;;;;;0.40;0.40;;;11.50;60.70;;;;;;5054764;28;20040;-83
2022/03/20 11:09:50;;;;;;;0.80;0.75;;;11.30;60.40;;;;;;5054669;28;20500;-83
2022/03/20 11:12:34;;;;;;;2.22;0.93;;;11.40;60.70;;;;;;5054767;28;20052;-83
2022/03/20 11:15:03;;;;;;;0.40;0.40;;;11.20;60.10;;;;;;5054318;28;20037;-83
2022/03/20 11:17:43;;;;;;;0.45;0.45;;;11.40;60.30;;;;;;5054262;28;20497;-83
2022/03/20 11:20:14;;;;;;;4.18;1.63;;;11.50;60.30;;;;;;5054925;28;20045;-83
2022/03/20 11:22:49;;;;;;;2.38;0.93;;;11.70;60.60;;;;;;5038031;28;20041;-82
2022/03/20 11:25:20;;;;;;;1.65;0.75;;;11.70;60.00;;;;;;5037643;28;20060;-82
2022/03/20 11:27:55;;;;;;;1.50;0.88;;;11.60;59.40;;;;;;5054259;28;20567;-83
2022/03/20 11:30:33;;;;;;;1.38;0.82;;;11.70;59.30;;;;;;5038094;28;20061;-83
2022/03/20 11:33:01;;;;;;;2.17;1.48;;;12.00;60.40;;;;;;5037495;28;20061;-83
2022/03/20 11:35:32;;;;;;;2.97;1.38;;;12.10;59.30;;;;;;5054131;28;20128;-82
2022/03/20 11:38:13;;;;;;;1.33;0.77;;;12.00;59.20;;;;;;5053810;28;20053;-83
2022/03/20 11:40:41;;;;;;;0.85;0.55;;;12.20;59.90;;;;;;5054478;28;20048;-82
2022/03/20 11:43:17;;;;;;;0.38;0.38;;;12.30;59.60;;;;;;5053714;28;20138;-82
2022/03/20 11:46:32;;;;;;;0.73;0.73;;;12.20;57.70;;;;;;5053457;28;20110;-82
2022/03/20 11:49:17;;;;;;;3.95;1.95;;;12.20;58.70;;;;;;5037782;28;20079;-82
2022/03/20 11:52:07;;;;;;;0.97;0.80;;;12.10;57.40;;;;;;5054166;28;20049;-82
2022/03/20 11:54:39;;;;;;;1.52;1.00;;;12.20;58.60;;;;;;5053946;28;20327;-82
2022/03/20 11:57:24;;;;;;;1.52;1.08;;;12.40;58.20;;;;;;5037220;28;20068;-82
2022/03/20 11:59:57;;;;;;;1.80;1.17;;;12.60;58.50;;;;;;5053951;28;20539;-82
2022/03/20 12:02:34;;;;;;;3.40;1.02;;;12.60;57.50;;;;;;5036945;28;20287;-82
2022/03/20 12:05:17;;;;;;;1.13;1.05;;;12.70;57.60;;;;;;5053779;28;20103;-82
2022/03/20 12:08:01;;;;;;;0.73;0.57;;;12.50;57.10;;;;;;5053890;28;20132;-82
2022/03/20 12:10:48;;;;;;;4.00;1.48;;;12.50;57.50;;;;;;5053656;28;20048;-82
2022/03/20 12:13:18;;;;;;;0.68;0.65;;;12.30;57.30;;;;;;5036611;28;20049;-82
2022/03/20 12:15:45;;;;;;;0.88;0.73;;;12.00;57.30;;;;;;5053720;28;20055;-82
2022/03/20 12:18:11;;;;;;;1.33;0.73;;;11.90;59.10;;;;;;5036859;28;20041;-82
2022/03/20 12:20:59;;;;;;;0.63;0.63;;;11.80;57.90;;;;;;5053335;28;20500;-82
2022/03/20 12:23:46;;;;;;;1.60;1.55;;;11.90;58.80;;;;;;5036929;28;20445;-82
2022/03/20 12:26:38;;;;;;;2.20;1.05;;;11.80;57.30;;;;;;5036588;28;20055;-82
2022/03/20 12:29:26;;;;;;;0.98;0.95;;;11.90;57.80;;;;;;5036904;28;20060;-82
2022/03/20 12:32:00;;;;;;;0.98;0.93;;;12.00;58.90;;;;;;5053129;28;20060;-82
2022/03/20 12:34:28;;;;;;;1.42;1.33;;;12.00;58.70;;;;;;5053643;28;20146;-82
2022/03/20 12:36:54;;;;;;;4.60;1.83;;;12.00;58.80;;;;;;5053252;28;20102;-81
2022/03/20 12:39:49;;;;;;;2.22;0.65;;;12.00;59.90;;;;;;5053234;28;20388;-81
2022/03/20 12:42:16;;;;;;;1.95;1.63;;;11.80;59.40;;;;;;5053360;28;20041;-82
2022/03/20 12:44:46;;;;;;;0.77;0.45;;;11.70;59.10;;;;;;5036307;28;20057;-81
2022/03/20 12:47:12;;;;;;;2.67;1.33;;;11.50;58.70;;;;;;5037110;28;20056;-81
2022/03/20 12:49:41;;;;;;;1.15;0.73;;;11.40;59.10;;;;;;5036574;28;20048;-81
2022/03/20 12:52:08;;;;;;;0.52;0.52;;;11.30;59.90;;;;;;5053371;28;20076;-82
2022/03/20 12:54:35;;;;;;;3.15;2.30;;;11.30;59.60;;;;;;5053285;28;20049;-81
2022/03/20 12:57:03;;;;;;;1.65;1.35;;;11.30;60.10;;;;;;5052092;28;20049;-82
2022/03/20 12:59:29;;;;;;;0.32;0.32;;;11.20;60.50;;;;;;5053611;28;20389;-81
2022/03/20 13:01:55;;;;;;;2.22;1.42;;;11.20;61.00;;;;;;5053011;28;20059;-82
2022/03/20 13:04:23;;;;;;;6.03;2.28;;;11.10;60.90;;;;;;5036296;28;20089;-81
2022/03/20 13:06:50;;;;;;;2.72;0.95;;;11.20;61.50;;;;;;5036354;28;20049;-81
2022/03/20 13:09:16;;;;;;;3.05;1.33;;;11.20;61.60;;;;;;5053054;28;20056;-82
2022/03/20 13:11:51;;;;;;;3.97;0.90;;;11.20;60.90;;;;;;5036128;28;20481;-81
2022/03/20 13:14:16;;;;;;;1.10;0.50;;;11.20;61.30;;;;;;5053081;28;20072;-82
2022/03/20 13:16:59;;;;;;;1.38;0.95;;;11.20;61.70;;;;;;5052471;28;20037;-81
2022/03/20 13:19:25;;;;;;;0.32;0.32;;;11.30;62.10;;;;;;5053034;28;20088;-82
2022/03/20 13:21:51;;;;;;;1.92;0.32;;;11.40;62.30;;;;;;5053007;28;20515;-81
2022/03/20 13:24:31;;;;;;;1.25;1.05;;;11.50;62.60;;;;;;5035637;28;20057;-81
2022/03/20 13:27:02;;;;;;;1.20;1.17;;;11.50;61.70;;;;;;5053179;28;20137;-82
2022/03/20 13:29:28;;;;;;;0.80;0.80;;;11.50;62.30;;;;;;5052518;28;20067;-82
2022/03/20 13:32:03;;;;;;;1.67;1.23;;;11.60;62.50;;;;;;5035923;28;20052;-82